Atlantic Beach, South Carolina
Current Conditions -  °F | °C
As of 11:42 PM on Monday 20 Oct 2014 (Local Time) from KCRE Reporting Station
Haze Haze  
Wind Chill: 57°   Ceiling: Unl
Heat Index: 57°   Visibility: 2mi
Dew Point: 56°   Wind: 0mph
Humidity: 96%   Direction: NA
Pressure: 30"   Gusts: NA
Location:  33.8371°N, 78.6471°W
Report Text: KCRE 210342Z AUTO 00000KT 2SM BR CLR 14/13 A3000 RMK AO1 T01390133
Loading
Personal Weather Stations






























Interactive Weather Map
Tropical Storm Tracking
New forecast layout! Learn more

10-Day Weather Forecast

Advertisements
Track Severe Weather on mobile